Time;durP1;ratioP1;P1;durP2;ratioP2;P2;SDS_P1;SDS_P2;PMS_P1;PMS_P2;Temp;Humidity;BMP_temperature;BMP_pressure;BME280_temperature;BME280_humidity;BME280_pressure;Samples;Min_cycle;Max_cycle;Signal;HPM_P1;HPM_P2
2019/10/24 00:01:05;;;;;;;4.69;4.29;;;;;;;20.16;59.50;100012.66;;;;-62
2019/10/24 00:04:05;;;;;;;4.65;4.25;;;;;;;20.16;59.49;100020.51;;;;-56
2019/10/24 00:07:05;;;;;;;4.44;4.04;;;;;;;20.15;59.52;100022.69;;;;-54
2019/10/24 00:10:05;;;;;;;4.49;4.09;;;;;;;20.15;59.49;100014.38;;;;-62
2019/10/24 00:13:05;;;;;;;4.41;4.01;;;;;;;20.15;59.49;100005.32;;;;-62
2019/10/24 00:16:05;;;;;;;4.65;4.25;;;;;;;20.15;59.53;100002.97;;;;-56
2019/10/24 00:19:05;;;;;;;4.63;4.23;;;;;;;20.15;59.51;99997.11;;;;-54
2019/10/24 00:22:05;;;;;;;4.70;4.30;;;;;;;20.15;59.45;99991.41;;;;-53
2019/10/24 00:25:05;;;;;;;4.90;4.40;;;;;;;20.14;59.47;99981.24;;;;-51
2019/10/24 00:28:05;;;;;;;4.86;4.46;;;;;;;20.15;59.47;99994.36;;;;-56
2019/10/24 00:31:05;;;;;;;4.78;4.37;;;;;;;20.13;59.50;99994.63;;;;-55
2019/10/24 00:34:05;;;;;;;4.73;4.33;;;;;;;20.13;59.46;99991.10;;;;-62
2019/10/24 00:37:05;;;;;;;5.21;4.39;;;;;;;20.13;59.55;99982.62;;;;-62
2019/10/24 00:40:05;;;;;;;4.81;4.35;;;;;;;20.13;59.43;99979.27;;;;-62
2019/10/24 00:43:05;;;;;;;5.11;4.61;;;;;;;20.12;59.50;99980.34;;;;-51
2019/10/24 00:46:05;;;;;;;4.59;4.17;;;;;;;20.13;59.52;99984.23;;;;-53
2019/10/24 00:49:05;;;;;;;4.85;4.45;;;;;;;20.12;59.45;99987.38;;;;-55
2019/10/24 00:52:05;;;;;;;4.46;4.06;;;;;;;20.12;59.49;99988.63;;;;-56
2019/10/24 00:55:05;;;;;;;4.79;4.35;;;;;;;20.12;59.52;99990.80;;;;-55
2019/10/24 00:58:05;;;;;;;4.55;4.15;;;;;;;20.12;59.52;99997.67;;;;-56
2019/10/24 01:01:05;;;;;;;4.49;4.09;;;;;;;20.12;59.48;100001.53;;;;-56
2019/10/24 01:04:05;;;;;;;4.57;4.17;;;;;;;20.11;59.51;99998.58;;;;-54
2019/10/24 01:07:05;;;;;;;4.53;4.13;;;;;;;20.11;59.48;99988.92;;;;-55
2019/10/24 01:10:05;;;;;;;4.61;4.19;;;;;;;20.11;59.48;99990.20;;;;-53
2019/10/24 01:13:05;;;;;;;4.47;4.09;;;;;;;20.11;59.46;99988.52;;;;-51
2019/10/24 01:16:05;;;;;;;4.77;4.20;;;;;;;20.11;59.50;99987.58;;;;-55
2019/10/24 01:19:05;;;;;;;4.50;4.10;;;;;;;20.10;59.50;99990.39;;;;-54
2019/10/24 01:22:05;;;;;;;4.43;4.03;;;;;;;20.11;59.48;99982.65;;;;-56
2019/10/24 01:25:05;;;;;;;4.70;4.30;;;;;;;20.09;59.54;99961.97;;;;-56
2019/10/24 01:28:05;;;;;;;4.71;4.31;;;;;;;20.10;59.50;99958.48;;;;-56
2019/10/24 01:31:05;;;;;;;4.35;4.01;;;;;;;20.09;59.50;99966.22;;;;-56
2019/10/24 01:34:05;;;;;;;4.61;4.21;;;;;;;20.10;59.47;99969.20;;;;-62
2019/10/24 01:37:05;;;;;;;4.51;4.12;;;;;;;20.09;59.51;99963.20;;;;-62
2019/10/24 01:40:05;;;;;;;4.80;4.40;;;;;;;20.09;59.50;99971.69;;;;-51
2019/10/24 01:43:05;;;;;;;4.51;4.11;;;;;;;20.08;59.49;99967.97;;;;-55
2019/10/24 01:46:05;;;;;;;4.58;4.18;;;;;;;20.08;59.48;99973.56;;;;-51
2019/10/24 01:49:05;;;;;;;4.56;4.16;;;;;;;20.08;59.50;99976.02;;;;-52
2019/10/24 01:52:05;;;;;;;4.49;4.09;;;;;;;20.08;59.47;99979.27;;;;-51
2019/10/24 01:55:05;;;;;;;4.61;4.21;;;;;;;20.08;59.49;99973.00;;;;-51
2019/10/24 01:58:05;;;;;;;4.54;4.16;;;;;;;20.08;59.50;99978.09;;;;-51
2019/10/24 02:01:05;;;;;;;4.39;3.99;;;;;;;20.07;59.50;99974.13;;;;-51
2019/10/24 02:04:05;;;;;;;4.59;4.19;;;;;;;20.08;59.49;99979.59;;;;-52
2019/10/24 02:07:05;;;;;;;4.71;4.31;;;;;;;20.07;59.48;99986.94;;;;-63
2019/10/24 02:10:05;;;;;;;4.57;4.17;;;;;;;20.07;59.47;99989.55;;;;-52
2019/10/24 02:13:05;;;;;;;4.22;3.92;;;;;;;20.07;59.46;99989.12;;;;-56
2019/10/24 02:16:05;;;;;;;4.32;3.92;;;;;;;20.07;59.51;99987.44;;;;-51
2019/10/24 02:19:05;;;;;;;4.75;4.35;;;;;;;20.07;59.49;99989.99;;;;-62
2019/10/24 02:22:05;;;;;;;4.90;4.48;;;;;;;20.07;59.49;99982.28;;;;-62
2019/10/24 02:25:05;;;;;;;4.44;4.04;;;;;;;20.07;59.46;99969.94;;;;-62
2019/10/24 02:28:05;;;;;;;4.46;4.06;;;;;;;20.07;59.45;99967.33;;;;-62
2019/10/24 02:31:05;;;;;;;4.45;4.05;;;;;;;20.06;59.45;99967.62;;;;-53
2019/10/24 02:34:05;;;;;;;4.59;4.19;;;;;;;20.05;59.45;99961.39;;;;-62
2019/10/24 02:37:05;;;;;;;4.45;4.08;;;;;;;20.06;59.42;99963.87;;;;-54
2019/10/24 02:40:05;;;;;;;4.37;3.98;;;;;;;20.05;59.47;99978.42;;;;-51
2019/10/24 02:43:05;;;;;;;4.55;4.15;;;;;;;20.05;59.49;99966.69;;;;-51
2019/10/24 02:46:05;;;;;;;4.19;3.87;;;;;;;20.04;59.52;99968.23;;;;-55
2019/10/24 02:49:06;;;;;;;4.71;4.31;;;;;;;20.04;59.46;99978.39;;;;-51
2019/10/24 02:52:05;;;;;;;4.57;4.17;;;;;;;20.05;59.44;99977.15;;;;-55
2019/10/24 02:55:05;;;;;;;4.50;4.10;;;;;;;20.04;59.50;99984.36;;;;-56
2019/10/24 02:58:05;;;;;;;6.99;4.29;;;;;;;20.03;59.47;99993.94;;;;-53
2019/10/24 03:01:05;;;;;;;4.33;3.95;;;;;;;20.03;59.48;99993.37;;;;-54
2019/10/24 03:04:05;;;;;;;4.24;3.89;;;;;;;20.03;59.49;100004.44;;;;-51
2019/10/24 03:07:05;;;;;;;4.40;4.00;;;;;;;20.02;59.49;99993.74;;;;-54
2019/10/24 03:10:05;;;;;;;4.35;3.95;;;;;;;20.03;59.52;99981.20;;;;-55
2019/10/24 03:13:05;;;;;;;4.71;4.31;;;;;;;20.02;59.48;99975.80;;;;-53
2019/10/24 03:16:05;;;;;;;4.69;4.29;;;;;;;20.02;59.47;99989.81;;;;-53
2019/10/24 03:19:05;;;;;;;4.60;4.20;;;;;;;20.03;59.43;99998.20;;;;-62
2019/10/24 03:22:05;;;;;;;4.53;4.13;;;;;;;20.03;59.45;99994.17;;;;-56
2019/10/24 03:25:05;;;;;;;4.52;4.12;;;;;;;20.02;59.46;99997.19;;;;-62
2019/10/24 03:28:05;;;;;;;4.45;4.06;;;;;;;20.01;59.45;99995.89;;;;-54
2019/10/24 03:31:05;;;;;;;4.20;3.90;;;;;;;20.01;59.52;99988.67;;;;-54
2019/10/24 03:34:05;;;;;;;4.33;4.03;;;;;;;20.01;59.48;99986.16;;;;-51
2019/10/24 03:37:05;;;;;;;4.61;4.21;;;;;;;20.01;59.49;99990.86;;;;-51
2019/10/24 03:40:05;;;;;;;4.60;4.20;;;;;;;20.01;59.49;100005.20;;;;-54
2019/10/24 03:43:05;;;;;;;4.03;3.73;;;;;;;20.01;59.54;100006.95;;;;-55
2019/10/24 03:46:05;;;;;;;4.31;4.01;;;;;;;20.01;59.50;100003.52;;;;-51
2019/10/24 03:49:05;;;;;;;4.39;3.99;;;;;;;20.01;59.56;99997.39;;;;-58
2019/10/24 03:52:05;;;;;;;4.75;4.35;;;;;;;20.03;59.51;100001.38;;;;-51
2019/10/24 03:55:05;;;;;;;4.45;4.05;;;;;;;20.04;59.62;100003.70;;;;-51
2019/10/24 03:58:05;;;;;;;4.29;3.93;;;;;;;20.05;59.63;100002.83;;;;-53
2019/10/24 04:01:05;;;;;;;9.23;4.23;;;;;;;20.05;59.60;100005.81;;;;-62
2019/10/24 04:04:05;;;;;;;4.76;4.01;;;;;;;20.04;59.65;100017.61;;;;-63
2019/10/24 04:07:05;;;;;;;5.72;4.29;;;;;;;20.04;59.63;100018.11;;;;-62
2019/10/24 04:10:05;;;;;;;4.45;3.99;;;;;;;20.04;59.60;100025.16;;;;-54
2019/10/24 04:13:05;;;;;;;4.30;3.90;;;;;;;20.03;59.63;100033.00;;;;-62
2019/10/24 04:16:05;;;;;;;5.09;3.97;;;;;;;20.03;59.64;100032.50;;;;-53
2019/10/24 04:19:05;;;;;;;4.45;4.05;;;;;;;20.02;59.62;100034.47;;;;-53
2019/10/24 04:22:05;;;;;;;4.31;3.91;;;;;;;20.02;59.61;100039.84;;;;-54
2019/10/24 04:25:05;;;;;;;4.50;3.99;;;;;;;20.02;59.62;100045.70;;;;-57
2019/10/24 04:28:05;;;;;;;4.49;4.06;;;;;;;20.02;59.62;100044.36;;;;-61
2019/10/24 04:31:05;;;;;;;4.59;3.87;;;;;;;20.02;59.60;100030.34;;;;-52
2019/10/24 04:34:05;;;;;;;4.37;3.97;;;;;;;20.01;59.62;100022.70;;;;-53
2019/10/24 04:37:05;;;;;;;4.32;3.92;;;;;;;20.01;59.61;100022.12;;;;-53
2019/10/24 04:40:05;;;;;;;4.27;3.92;;;;;;;20.01;59.58;100022.37;;;;-57
2019/10/24 04:43:05;;;;;;;4.39;3.99;;;;;;;20.02;59.60;100031.02;;;;-62
2019/10/24 04:46:05;;;;;;;4.15;3.75;;;;;;;20.02;59.57;100026.70;;;;-63
2019/10/24 04:49:05;;;;;;;4.29;3.95;;;;;;;20.02;59.56;100014.02;;;;-52
2019/10/24 04:52:05;;;;;;;4.25;3.85;;;;;;;20.04;59.47;100010.47;;;;-52
2019/10/24 04:55:05;;;;;;;4.01;3.71;;;;;;;20.05;59.44;100021.44;;;;-53
2019/10/24 04:58:05;;;;;;;4.04;3.74;;;;;;;20.08;59.37;100029.31;;;;-54
2019/10/24 05:01:05;;;;;;;4.07;3.77;;;;;;;20.11;59.40;100033.68;;;;-53
2019/10/24 05:04:05;;;;;;;4.07;3.70;;;;;;;20.13;59.34;100024.70;;;;-54
2019/10/24 05:07:05;;;;;;;4.25;3.85;;;;;;;20.16;59.36;100027.38;;;;-52
2019/10/24 05:10:05;;;;;;;4.06;3.76;;;;;;;20.18;59.40;100037.89;;;;-52
2019/10/24 05:13:05;;;;;;;4.05;3.63;;;;;;;20.21;59.35;100039.06;;;;-62
2019/10/24 05:16:05;;;;;;;3.99;3.63;;;;;;;20.25;59.51;100035.47;;;;-53
2019/10/24 05:19:05;;;;;;;3.91;3.61;;;;;;;20.28;59.50;100038.94;;;;-57
2019/10/24 05:22:05;;;;;;;3.67;3.37;;;;;;;20.30;59.53;100027.63;;;;-53
2019/10/24 05:25:05;;;;;;;3.95;3.65;;;;;;;20.33;59.58;100032.77;;;;-52
2019/10/24 05:28:05;;;;;;;3.91;3.57;;;;;;;20.34;59.64;100035.05;;;;-62
2019/10/24 05:31:05;;;;;;;4.11;3.73;;;;;;;20.37;59.53;100027.70;;;;-54
2019/10/24 05:34:05;;;;;;;3.95;3.65;;;;;;;20.39;59.55;100016.94;;;;-54
2019/10/24 05:37:05;;;;;;;3.86;3.56;;;;;;;20.40;59.56;100011.88;;;;-57
2019/10/24 05:40:05;;;;;;;3.64;3.34;;;;;;;20.42;59.51;100018.88;;;;-54
2019/10/24 05:43:05;;;;;;;3.81;3.51;;;;;;;20.45;59.51;100027.03;;;;-58
2019/10/24 05:46:05;;;;;;;3.73;3.43;;;;;;;20.45;59.51;100025.09;;;;-53
2019/10/24 05:49:05;;;;;;;3.90;3.60;;;;;;;20.46;59.50;100016.00;;;;-57
2019/10/24 05:52:05;;;;;;;4.26;3.90;;;;;;;20.47;59.40;100016.20;;;;-61
2019/10/24 05:55:05;;;;;;;4.03;3.41;;;;;;;20.48;59.42;100024.69;;;;-62
2019/10/24 05:58:04;;;;;;;3.83;3.53;;;;;;;20.49;59.38;100031.63;;;;-57
2019/10/24 06:01:05;;;;;;;3.95;3.65;;;;;;;20.50;59.29;100040.86;;;;-54
2019/10/24 06:04:05;;;;;;;3.78;3.48;;;;;;;20.51;59.35;100028.55;;;;-57
2019/10/24 06:07:05;;;;;;;3.60;3.30;;;;;;;20.51;59.27;100011.40;;;;-53
2019/10/24 06:10:05;;;;;;;3.72;3.42;;;;;;;20.50;59.22;100002.87;;;;-53
2019/10/24 06:13:05;;;;;;;3.64;3.34;;;;;;;20.51;59.31;99988.09;;;;-52
2019/10/24 06:16:05;;;;;;;3.57;3.27;;;;;;;20.51;59.28;99979.86;;;;-52
2019/10/24 06:19:05;;;;;;;4.70;3.60;;;;;;;20.53;59.42;99990.00;;;;-51
2019/10/24 06:22:05;;;;;;;3.97;3.49;;;;;;;20.55;59.45;100001.60;;;;-51
2019/10/24 06:25:05;;;;;;;3.69;3.39;;;;;;;20.56;59.61;99999.72;;;;-49
2019/10/24 06:28:05;;;;;;;3.91;3.40;;;;;;;20.58;59.51;99985.66;;;;-49
2019/10/24 06:31:05;;;;;;;3.94;3.47;;;;;;;20.58;59.41;99987.00;;;;-49
2019/10/24 06:34:05;;;;;;;3.49;3.19;;;;;;;20.58;59.37;99998.17;;;;-60
2019/10/24 06:37:05;;;;;;;3.79;3.49;;;;;;;20.58;59.22;100005.22;;;;-60
2019/10/24 06:40:05;;;;;;;3.58;3.28;;;;;;;20.59;59.18;100011.70;;;;-59
2019/10/24 06:43:05;;;;;;;4.55;3.52;;;;;;;20.59;59.17;100010.55;;;;-59
2019/10/24 06:46:05;;;;;;;3.76;3.41;;;;;;;20.58;59.16;99989.62;;;;-60
2019/10/24 06:49:05;;;;;;;4.12;3.47;;;;;;;20.60;59.34;99963.25;;;;-59
2019/10/24 06:52:05;;;;;;;4.61;3.47;;;;;;;20.60;59.59;99931.97;;;;-55
2019/10/24 06:55:05;;;;;;;3.73;3.36;;;;;;;20.61;59.69;99942.58;;;;-61
2019/10/24 06:58:05;;;;;;;4.07;3.67;;;;;;;20.63;59.80;99977.94;;;;-61
2019/10/24 07:01:05;;;;;;;6.46;3.85;;;;;;;20.65;59.97;100004.45;;;;-52
2019/10/24 07:04:05;;;;;;;6.42;4.23;;;;;;;20.67;59.75;99984.20;;;;-51
2019/10/24 07:07:05;;;;;;;6.53;3.80;;;;;;;20.67;59.72;99957.43;;;;-48
2019/10/24 07:10:05;;;;;;;6.56;4.00;;;;;;;20.67;59.66;99960.72;;;;-48
2019/10/24 07:13:05;;;;;;;7.49;3.91;;;;;;;20.69;59.83;99959.09;;;;-50
2019/10/24 07:16:05;;;;;;;6.76;4.69;;;;;;;20.71;59.73;99966.05;;;;-50
2019/10/24 07:19:05;;;;;;;7.32;4.83;;;;;;;20.75;59.98;99975.64;;;;-51
2019/10/24 07:22:05;;;;;;;9.05;4.57;;;;;;;20.74;59.77;99988.19;;;;-50
2019/10/24 07:25:04;;;;;;;12.40;5.17;;;;;;;20.74;59.46;99989.53;;;;-50
2019/10/24 07:28:05;;;;;;;9.23;4.81;;;;;;;20.73;59.26;99984.80;;;;-50
2019/10/24 07:31:05;;;;;;;5.22;4.68;;;;;;;20.73;59.43;99978.59;;;;-50
2019/10/24 07:34:05;;;;;;;6.34;4.72;;;;;;;20.72;59.38;99977.48;;;;-50
2019/10/24 07:37:05;;;;;;;7.90;4.72;;;;;;;20.71;59.37;99973.33;;;;-50
2019/10/24 07:40:05;;;;;;;7.61;4.59;;;;;;;20.71;59.42;99976.02;;;;-50
2019/10/24 07:43:05;;;;;;;5.66;4.35;;;;;;;20.69;59.39;99998.77;;;;-51
2019/10/24 07:46:05;;;;;;;5.63;4.61;;;;;;;20.68;59.30;99999.91;;;;-50
2019/10/24 07:49:05;;;;;;;4.81;4.34;;;;;;;20.68;59.33;100010.25;;;;-51
2019/10/24 07:52:05;;;;;;;6.53;4.52;;;;;;;20.67;59.27;100033.20;;;;-50
2019/10/24 07:55:05;;;;;;;6.61;4.33;;;;;;;20.66;59.27;100053.64;;;;-50
2019/10/24 07:58:05;;;;;;;6.90;4.61;;;;;;;20.65;59.25;100061.56;;;;-51
2019/10/24 08:01:05;;;;;;;6.60;4.60;;;;;;;20.65;59.23;100056.53;;;;-50
2019/10/24 08:04:04;;;;;;;7.29;4.55;;;;;;;20.65;59.22;100053.34;;;;-50
2019/10/24 08:07:05;;;;;;;4.88;4.15;;;;;;;20.64;59.23;100053.64;;;;-50
2019/10/24 08:10:05;;;;;;;7.59;4.32;;;;;;;20.62;59.23;100046.80;;;;-50
2019/10/24 08:13:05;;;;;;;6.02;4.37;;;;;;;20.63;59.17;100042.03;;;;-50
2019/10/24 08:16:05;;;;;;;5.63;4.29;;;;;;;20.62;59.20;100038.07;;;;-50
2019/10/24 08:19:05;;;;;;;4.53;4.06;;;;;;;20.61;59.19;100025.95;;;;-50
2019/10/24 08:22:05;;;;;;;4.91;4.34;;;;;;;20.61;59.16;100033.23;;;;-50
2019/10/24 08:25:04;;;;;;;6.24;4.21;;;;;;;20.60;59.20;100033.41;;;;-50
2019/10/24 08:28:05;;;;;;;5.33;4.23;;;;;;;20.59;59.23;100036.90;;;;-50
2019/10/24 08:31:05;;;;;;;5.21;4.59;;;;;;;20.59;59.17;100046.02;;;;-50
2019/10/24 08:34:05;;;;;;;4.88;4.23;;;;;;;20.58;59.20;100047.16;;;;-50
2019/10/24 08:37:05;;;;;;;4.86;4.36;;;;;;;20.58;59.16;100053.87;;;;-50
2019/10/24 08:40:05;;;;;;;4.79;4.20;;;;;;;20.57;59.20;100049.08;;;;-50
2019/10/24 08:43:05;;;;;;;5.17;4.43;;;;;;;20.55;59.15;100048.74;;;;-50
2019/10/24 08:46:04;;;;;;;6.03;4.23;;;;;;;20.56;59.19;100050.35;;;;-50
2019/10/24 08:49:05;;;;;;;5.48;4.29;;;;;;;20.55;59.12;100040.52;;;;-50
2019/10/24 08:52:05;;;;;;;4.53;4.11;;;;;;;20.55;59.18;100034.38;;;;-50
2019/10/24 08:55:05;;;;;;;4.58;4.08;;;;;;;20.54;59.12;100026.90;;;;-50
2019/10/24 08:58:05;;;;;;;4.65;4.15;;;;;;;20.53;59.17;100032.44;;;;-50
2019/10/24 09:01:05;;;;;;;4.29;3.89;;;;;;;20.52;59.18;100044.31;;;;-50
2019/10/24 09:04:05;;;;;;;4.76;4.15;;;;;;;20.52;59.16;100050.75;;;;-51
2019/10/24 09:07:05;;;;;;;4.13;3.81;;;;;;;20.52;59.19;100066.42;;;;-50
2019/10/24 09:10:05;;;;;;;5.41;4.14;;;;;;;20.51;59.16;100069.61;;;;-50
2019/10/24 09:13:05;;;;;;;4.49;4.09;;;;;;;20.50;59.17;100057.91;;;;-51
2019/10/24 09:16:05;;;;;;;4.77;4.18;;;;;;;20.49;59.17;100066.42;;;;-50
2019/10/24 09:19:05;;;;;;;4.66;4.24;;;;;;;20.50;59.09;100074.10;;;;-50
2019/10/24 09:22:05;;;;;;;6.31;4.08;;;;;;;20.49;59.12;100070.11;;;;-51
2019/10/24 09:25:05;;;;;;;5.07;4.14;;;;;;;20.48;59.20;100079.70;;;;-50
2019/10/24 09:28:04;;;;;;;5.12;4.00;;;;;;;20.48;59.14;100086.82;;;;-50
2019/10/24 09:31:05;;;;;;;4.40;4.00;;;;;;;20.47;59.14;100089.77;;;;-50
2019/10/24 09:34:05;;;;;;;4.27;3.80;;;;;;;20.47;59.12;100106.38;;;;-50
2019/10/24 09:37:05;;;;;;;4.39;3.94;;;;;;;20.47;59.15;100118.75;;;;-50
2019/10/24 09:40:05;;;;;;;4.22;3.71;;;;;;;20.46;59.20;100117.81;;;;-50
2019/10/24 09:43:05;;;;;;;4.31;3.83;;;;;;;20.45;59.19;100124.92;;;;-50
2019/10/24 09:46:05;;;;;;;5.04;3.77;;;;;;;20.45;59.15;100128.11;;;;-50
2019/10/24 09:49:05;;;;;;;5.16;3.80;;;;;;;20.44;59.17;100137.64;;;;-50
2019/10/24 09:52:05;;;;;;;4.19;3.77;;;;;;;20.44;59.13;100132.74;;;;-50
2019/10/24 09:55:05;;;;;;;4.17;3.79;;;;;;;20.44;59.13;100129.25;;;;-50
2019/10/24 09:58:05;;;;;;;4.17;3.83;;;;;;;20.43;59.13;100131.06;;;;-50
2019/10/24 10:01:05;;;;;;;4.39;3.99;;;;;;;20.43;59.12;100134.08;;;;-50
2019/10/24 10:04:05;;;;;;;5.19;3.90;;;;;;;20.43;59.14;100132.80;;;;-50
2019/10/24 10:07:05;;;;;;;4.15;3.75;;;;;;;20.43;59.11;100115.27;;;;-51
2019/10/24 10:10:04;;;;;;;4.13;3.73;;;;;;;20.41;59.08;100093.39;;;;-50
2019/10/24 10:13:04;;;;;;;4.30;3.90;;;;;;;20.41;59.11;100117.41;;;;-50
2019/10/24 10:16:04;;;;;;;4.10;3.80;;;;;;;20.40;59.12;100128.91;;;;-50
2019/10/24 10:19:05;;;;;;;4.20;3.80;;;;;;;20.39;59.17;100125.72;;;;-50
2019/10/24 10:22:05;;;;;;;5.19;3.67;;;;;;;20.39;59.19;100142.49;;;;-50
2019/10/24 10:25:05;;;;;;;4.17;3.41;;;;;;;20.39;59.12;100150.78;;;;-50
2019/10/24 10:28:05;;;;;;;4.80;3.70;;;;;;;20.38;59.18;100134.81;;;;-50
2019/10/24 10:31:05;;;;;;;3.79;3.48;;;;;;;20.37;59.15;100127.33;;;;-50
2019/10/24 10:34:05;;;;;;;4.15;3.75;;;;;;;20.37;59.13;100131.19;;;;-50
2019/10/24 10:37:05;;;;;;;5.21;4.25;;;;;;;20.37;59.38;100136.72;;;;-51
2019/10/24 10:40:05;;;;;;;6.48;3.78;;;;;;;20.38;59.43;100138.94;;;;-47
2019/10/24 10:43:05;;;;;;;5.97;3.75;;;;;;;20.39;59.31;100138.30;;;;-48
2019/10/24 10:46:05;;;;;;;5.11;3.76;;;;;;;20.39;59.39;100138.47;;;;-48
2019/10/24 10:49:05;;;;;;;5.03;3.85;;;;;;;20.39;59.33;100130.59;;;;-48
2019/10/24 10:52:04;;;;;;;4.75;3.79;;;;;;;20.40;59.35;100123.41;;;;-50
2019/10/24 10:55:05;;;;;;;4.37;3.67;;;;;;;20.43;59.28;100129.78;;;;-48
2019/10/24 10:58:05;;;;;;;4.46;3.73;;;;;;;20.44;59.31;100136.30;;;;-50
2019/10/24 11:01:05;;;;;;;5.31;3.88;;;;;;;20.47;59.32;100131.61;;;;-51
2019/10/24 11:04:05;;;;;;;7.09;4.03;;;;;;;20.44;59.46;100120.26;;;;-51
2019/10/24 11:07:05;;;;;;;9.97;4.00;;;;;;;20.45;59.54;100107.81;;;;-52
2019/10/24 11:10:05;;;;;;;5.76;3.88;;;;;;;20.47;59.44;100097.48;;;;-49
2019/10/24 11:13:04;;;;;;;4.89;3.91;;;;;;;20.50;59.42;100101.52;;;;-50
2019/10/24 11:16:05;;;;;;;5.72;3.99;;;;;;;20.50;59.43;100089.00;;;;-50
2019/10/24 11:19:05;;;;;;;7.02;4.05;;;;;;;20.50;59.69;100087.73;;;;-50
2019/10/24 11:22:05;;;;;;;10.79;4.01;;;;;;;20.51;59.64;100091.05;;;;-52
2019/10/24 11:25:05;;;;;;;5.95;3.91;;;;;;;20.53;59.53;100090.95;;;;-53
2019/10/24 11:28:05;;;;;;;5.60;3.89;;;;;;;20.53;59.49;100093.00;;;;-52
2019/10/24 11:31:05;;;;;;;7.63;3.85;;;;;;;20.55;59.52;100093.09;;;;-51
2019/10/24 11:34:04;;;;;;;5.49;3.68;;;;;;;20.55;59.51;100087.42;;;;-52
2019/10/24 11:37:04;;;;;;;5.67;3.84;;;;;;;20.57;59.45;100084.20;;;;-51
2019/10/24 11:40:04;;;;;;;6.43;3.67;;;;;;;20.56;59.43;100087.70;;;;-51
2019/10/24 11:43:05;;;;;;;8.97;3.76;;;;;;;20.56;59.50;100079.48;;;;-52
2019/10/24 11:46:05;;;;;;;5.89;3.55;;;;;;;20.57;59.43;100077.16;;;;-51
2019/10/24 11:49:05;;;;;;;7.71;3.78;;;;;;;20.57;59.44;100074.41;;;;-51
2019/10/24 11:52:05;;;;;;;4.80;3.46;;;;;;;20.55;59.47;100079.04;;;;-51
2019/10/24 11:55:04;;;;;;;7.41;3.83;;;;;;;20.55;59.46;100085.25;;;;-51
2019/10/24 11:58:04;;;;;;;4.91;3.77;;;;;;;20.54;59.42;100088.16;;;;-51
2019/10/24 12:01:05;;;;;;;8.19;3.75;;;;;;;20.55;59.36;100092.53;;;;-51
2019/10/24 12:04:05;;;;;;;4.05;3.63;;;;;;;20.54;59.36;100085.05;;;;-52
2019/10/24 12:07:05;;;;;;;6.10;3.33;;;;;;;20.55;59.34;100080.34;;;;-51
2019/10/24 12:10:05;;;;;;;4.83;3.51;;;;;;;20.53;59.34;100074.84;;;;-51
2019/10/24 12:13:05;;;;;;;5.07;3.83;;;;;;;20.53;59.30;100075.95;;;;-51
2019/10/24 12:16:04;;;;;;;5.37;3.65;;;;;;;20.53;59.24;100073.88;;;;-51
2019/10/24 12:19:04;;;;;;;4.42;3.52;;;;;;;20.52;59.25;100073.33;;;;-61
2019/10/24 12:22:05;;;;;;;4.97;3.55;;;;;;;20.52;59.17;100070.95;;;;-61
2019/10/24 12:25:05;;;;;;;3.97;3.42;;;;;;;20.51;59.20;100068.41;;;;-51
2019/10/24 12:28:05;;;;;;;5.62;3.60;;;;;;;20.52;59.21;100065.75;;;;-53
2019/10/24 12:31:05;;;;;;;5.59;3.13;;;;;;;20.51;59.16;100058.20;;;;-52
2019/10/24 12:34:05;;;;;;;4.22;3.25;;;;;;;20.52;59.15;100054.25;;;;-51
2019/10/24 12:37:04;;;;;;;8.19;3.77;;;;;;;20.51;59.33;100055.34;;;;-62
2019/10/24 12:40:05;;;;;;;6.48;3.59;;;;;;;20.53;59.43;100056.42;;;;-57
2019/10/24 12:43:05;;;;;;;5.65;3.77;;;;;;;20.57;59.58;100051.73;;;;-63
2019/10/24 12:46:05;;;;;;;7.19;3.60;;;;;;;20.59;59.67;100042.17;;;;-54
2019/10/24 12:49:05;;;;;;;9.78;3.66;;;;;;;20.59;59.68;100035.19;;;;-52
2019/10/24 12:52:05;;;;;;;6.22;3.50;;;;;;;20.61;59.66;100034.92;;;;-51
2019/10/24 12:55:05;;;;;;;6.29;3.69;;;;;;;20.61;59.77;100027.13;;;;-47
2019/10/24 12:58:05;;;;;;;7.33;3.65;;;;;;;20.62;59.74;100020.95;;;;-52
2019/10/24 13:01:04;;;;;;;5.98;3.68;;;;;;;20.63;59.71;100021.22;;;;-53
2019/10/24 13:04:32;;;;;;;6.43;3.58;;;;;;;20.66;59.89;100030.72;;;;-51
2019/10/24 13:07:05;;;;;;;6.69;3.40;;;;;;;20.67;59.95;100029.51;;;;-61
2019/10/24 13:10:05;;;;;;;10.41;3.67;;;;;;;20.69;59.92;100030.48;;;;-52
2019/10/24 13:13:05;;;;;;;6.25;3.42;;;;;;;20.69;59.91;100027.30;;;;-53
2019/10/24 13:16:05;;;;;;;5.97;3.65;;;;;;;20.71;59.96;100031.22;;;;-61
2019/10/24 13:19:05;;;;;;;4.68;3.51;;;;;;;20.72;60.02;100037.22;;;;-59
2019/10/24 13:22:04;;;;;;;5.34;3.36;;;;;;;20.73;59.89;100036.48;;;;-60
2019/10/24 13:25:04;;;;;;;6.59;3.28;;;;;;;20.73;59.95;100055.11;;;;-61
2019/10/24 13:28:04;;;;;;;5.79;3.36;;;;;;;20.73;59.85;100061.16;;;;-52
2019/10/24 13:31:05;;;;;;;5.90;3.47;;;;;;;20.73;59.87;100070.65;;;;-51
2019/10/24 13:34:05;;;;;;;9.96;3.58;;;;;;;20.73;59.75;100066.19;;;;-57
2019/10/24 13:37:05;;;;;;;7.32;3.31;;;;;;;20.75;59.86;100063.23;;;;-59
2019/10/24 13:40:05;;;;;;;8.77;3.46;;;;;;;20.75;59.73;100048.63;;;;-51
2019/10/24 13:43:05;;;;;;;8.70;3.39;;;;;;;20.75;59.75;100038.33;;;;-52
2019/10/24 13:46:05;;;;;;;7.82;3.27;;;;;;;20.76;59.84;100065.52;;;;-65
2019/10/24 13:49:04;;;;;;;7.68;3.89;;;;;;;20.76;59.71;100071.42;;;;-64
2019/10/24 13:52:05;;;;;;;11.52;3.29;;;;;;;20.76;59.74;100076.95;;;;-51
2019/10/24 13:55:05;;;;;;;8.13;3.79;;;;;;;20.77;59.66;100076.72;;;;-51
2019/10/24 13:58:05;;;;;;;7.36;3.51;;;;;;;20.77;59.67;100077.90;;;;-53
2019/10/24 14:01:05;;;;;;;7.80;3.37;;;;;;;20.78;59.69;100079.84;;;;-47
2019/10/24 14:04:04;;;;;;;6.51;3.45;;;;;;;20.78;59.73;100069.11;;;;-50
2019/10/24 14:07:05;;;;;;;7.03;3.43;;;;;;;20.78;59.70;100063.33;;;;-51
2019/10/24 14:10:05;;;;;;;5.04;3.52;;;;;;;20.78;59.69;100061.31;;;;-52
2019/10/24 14:13:05;;;;;;;5.71;3.55;;;;;;;20.77;59.83;100058.44;;;;-51
2019/10/24 14:16:06;;;;;;;6.95;3.18;;;;;;;20.77;59.74;100048.62;;;;-54
2019/10/24 14:19:05;;;;;;;5.03;3.25;;;;;;;20.77;59.71;100035.54;;;;-55
2019/10/24 14:22:05;;;;;;;7.49;3.37;;;;;;;20.76;59.58;100042.29;;;;-53
2019/10/24 14:25:04;;;;;;;6.97;3.13;;;;;;;20.76;59.61;100051.95;;;;-56
2019/10/24 14:28:04;;;;;;;7.99;3.26;;;;;;;20.74;59.53;100063.47;;;;-51
2019/10/24 14:31:05;;;;;;;5.04;3.28;;;;;;;20.75;59.56;100077.16;;;;-63
2019/10/24 14:34:04;;;;;;;5.72;3.02;;;;;;;20.74;59.47;100089.55;;;;-52
2019/10/24 14:37:04;;;;;;;4.77;3.13;;;;;;;20.73;59.43;100092.94;;;;-51
2019/10/24 14:40:05;;;;;;;6.89;3.30;;;;;;;20.73;59.47;100090.19;;;;-64
2019/10/24 14:43:05;;;;;;;6.68;3.17;;;;;;;20.73;59.36;100101.93;;;;-56
2019/10/24 14:46:04;;;;;;;5.78;3.21;;;;;;;20.69;59.52;100102.40;;;;-53
2019/10/24 14:49:04;;;;;;;5.43;3.05;;;;;;;20.71;59.42;100118.31;;;;-53
2019/10/24 14:52:04;;;;;;;5.59;3.25;;;;;;;20.70;59.39;100117.94;;;;-50
2019/10/24 14:55:05;;;;;;;5.64;3.18;;;;;;;20.67;59.49;100114.75;;;;-62
2019/10/24 14:58:05;;;;;;;5.63;3.29;;;;;;;20.65;59.51;100115.42;;;;-61
2019/10/24 15:01:05;;;;;;;3.88;3.07;;;;;;;20.62;59.59;100113.57;;;;-54
2019/10/24 15:04:05;;;;;;;4.91;3.11;;;;;;;20.62;59.47;100117.70;;;;-62
2019/10/24 15:07:04;;;;;;;5.88;3.15;;;;;;;20.61;59.49;100118.57;;;;-53
2019/10/24 15:10:04;;;;;;;6.37;3.14;;;;;;;20.60;59.48;100120.95;;;;-53
2019/10/24 15:13:04;;;;;;;5.86;3.33;;;;;;;20.59;59.55;100117.06;;;;-53
2019/10/24 15:16:04;;;;;;;3.97;3.07;;;;;;;20.58;59.56;100115.11;;;;-53
2019/10/24 15:19:04;;;;;;;3.87;2.99;;;;;;;20.56;59.52;100118.23;;;;-54
2019/10/24 15:22:04;;;;;;;5.33;3.00;;;;;;;20.56;59.50;100120.41;;;;-50
2019/10/24 15:25:05;;;;;;;4.85;2.89;;;;;;;20.55;59.53;100123.30;;;;-51
2019/10/24 15:28:04;;;;;;;5.79;2.91;;;;;;;20.55;59.48;100133.36;;;;-52
2019/10/24 15:31:04;;;;;;;4.11;3.18;;;;;;;20.53;59.50;100131.31;;;;-53
2019/10/24 15:34:05;;;;;;;3.31;2.97;;;;;;;20.53;59.47;100141.61;;;;-53
2019/10/24 15:37:05;;;;;;;3.29;2.99;;;;;;;20.52;59.52;100150.84;;;;-53
2019/10/24 15:40:05;;;;;;;3.97;2.97;;;;;;;20.50;59.53;100147.58;;;;-53
2019/10/24 15:43:05;;;;;;;4.28;3.05;;;;;;;20.49;59.52;100161.13;;;;-53
2019/10/24 15:46:05;;;;;;;3.10;2.80;;;;;;;20.49;59.56;100180.09;;;;-53
2019/10/24 15:49:04;;;;;;;3.97;2.85;;;;;;;20.48;59.55;100182.13;;;;-53
2019/10/24 15:52:05;;;;;;;3.87;2.87;;;;;;;20.48;59.58;100188.91;;;;-53
2019/10/24 15:55:04;;;;;;;4.01;2.97;;;;;;;20.48;59.59;100190.48;;;;-53
2019/10/24 15:58:05;;;;;;;4.86;2.91;;;;;;;20.47;59.54;100199.38;;;;-61
2019/10/24 16:01:04;;;;;;;2.93;2.61;;;;;;;20.45;59.64;100192.09;;;;-58
2019/10/24 16:04:05;;;;;;;5.13;2.75;;;;;;;20.48;59.67;100196.39;;;;-50
2019/10/24 16:07:05;;;;;;;4.39;2.89;;;;;;;20.50;59.63;100202.67;;;;-51
2019/10/24 16:10:04;;;;;;;4.75;2.85;;;;;;;20.52;59.63;100203.21;;;;-51
2019/10/24 16:13:04;;;;;;;3.31;2.70;;;;;;;20.54;59.60;100203.89;;;;-57
2019/10/24 16:16:04;;;;;;;4.55;2.87;;;;;;;20.55;59.69;100205.27;;;;-59
2019/10/24 16:19:05;;;;;;;4.27;2.70;;;;;;;20.56;59.73;100200.44;;;;-56
2019/10/24 16:22:05;;;;;;;5.97;2.99;;;;;;;20.58;59.66;100203.93;;;;-59
2019/10/24 16:25:05;;;;;;;6.23;2.99;;;;;;;20.59;59.75;100199.87;;;;-56
2019/10/24 16:28:05;;;;;;;4.83;2.97;;;;;;;20.58;59.75;100197.83;;;;-56
2019/10/24 16:31:04;;;;;;;3.11;2.79;;;;;;;20.59;59.81;100195.68;;;;-51
2019/10/24 16:34:04;;;;;;;3.14;2.75;;;;;;;20.60;59.72;100195.48;;;;-59
2019/10/24 16:37:04;;;;;;;5.65;2.93;;;;;;;20.61;59.77;100190.05;;;;-59
2019/10/24 16:40:04;;;;;;;4.59;2.73;;;;;;;20.62;59.80;100183.27;;;;-53
2019/10/24 16:43:04;;;;;;;3.43;2.61;;;;;;;20.62;59.76;100171.39;;;;-59
2019/10/24 16:46:05;;;;;;;2.75;2.55;;;;;;;20.63;59.79;100174.52;;;;-57